createdAt,value
2022-11-29T00:01:23.868Z,90.83
2022-11-29T00:03:52.321Z,89.47
2022-11-29T00:06:27.206Z,89.73
2022-11-29T00:08:57.061Z,90.67
2022-11-29T00:11:45.596Z,91.11
2022-11-29T00:14:15.910Z,88.47
2022-11-29T00:16:43.416Z,90.81
2022-11-29T00:19:12.225Z,89.03
2022-11-29T00:21:39.894Z,88.86
2022-11-29T00:24:07.396Z,89.06
2022-11-29T00:26:34.891Z,91.22
2022-11-29T00:29:03.544Z,89.15
2022-11-29T00:31:32.769Z,90.01
2022-11-29T00:34:02.948Z,89.72
2022-11-29T00:36:31.105Z,89.25
2022-11-29T00:38:58.805Z,89.13
2022-11-29T00:41:26.187Z,89.48
2022-11-29T00:43:54.082Z,88.97
2022-11-29T00:46:21.505Z,90.47
2022-11-29T00:48:48.847Z,89.62
2022-11-29T00:51:16.465Z,89.05
2022-11-29T00:53:43.816Z,87.14
2022-11-29T00:56:11.216Z,87.25
2022-11-29T00:58:38.872Z,91.13
2022-11-29T01:01:06.227Z,91.63
2022-11-29T01:03:34.124Z,90.57
2022-11-29T01:06:04.303Z,90.58
2022-11-29T01:08:31.904Z,90.72
2022-11-29T01:11:07.803Z,88.90
2022-11-29T01:13:35.735Z,91.10
2022-11-29T01:16:04.017Z,89.87
2022-11-29T01:18:31.651Z,89.70
2022-11-29T01:21:01.626Z,89.11
2022-11-29T01:23:29.451Z,89.82
2022-11-29T01:26:20.774Z,88.36
2022-11-29T01:28:50.211Z,88.93
2022-11-29T01:31:22.324Z,92.13
2022-11-29T01:33:53.923Z,89.31
2022-11-29T01:36:21.277Z,89.60
2022-11-29T01:38:48.606Z,88.58
2022-11-29T01:41:20.587Z,88.11
2022-11-29T01:44:03.406Z,89.68
2022-11-29T01:46:44.886Z,90.90
2022-11-29T01:49:37.246Z,90.67
2022-11-29T01:52:33.863Z,91.72
2022-11-29T01:55:04.764Z,91.09
2022-11-29T01:57:34.136Z,91.77
2022-11-29T02:00:08.737Z,89.34
2022-11-29T02:02:56.430Z,89.63
2022-11-29T02:05:25.139Z,88.55
2022-11-29T02:07:54.375Z,88.85
2022-11-29T02:10:26.146Z,89.56
2022-11-29T02:13:11.049Z,90.90
2022-11-29T02:16:17.520Z,91.99
2022-11-29T02:19:00.167Z,91.68
2022-11-29T02:21:42.657Z,93.42
2022-11-29T02:24:45.333Z,93.41
2022-11-29T02:27:24.580Z,94.20
2022-11-29T02:30:20.759Z,93.05
2022-11-29T02:33:06.232Z,92.48
2022-11-29T02:35:49.065Z,91.60
2022-11-29T02:38:21.974Z,92.97
2022-11-29T02:40:52.361Z,93.02
2022-11-29T02:43:37.722Z,94.73
2022-11-29T02:46:17.774Z,94.84
2022-11-29T02:48:53.877Z,90.79
2022-11-29T02:51:39.398Z,91.07
2022-11-29T02:54:08.847Z,89.88
2022-11-29T02:56:53.918Z,90.02
2022-11-29T02:59:36.756Z,90.97
2022-11-29T03:02:29.325Z,90.50
2022-11-29T03:05:34.393Z,90.83
2022-11-29T03:08:29.369Z,88.91
2022-11-29T03:11:10.155Z,88.14
2022-11-29T03:13:59.153Z,92.67
2022-11-29T03:16:39.719Z,93.11
2022-11-29T03:19:28.669Z,93.41
2022-11-29T03:22:12.398Z,91.55
2022-11-29T03:24:58.406Z,91.34
2022-11-29T03:27:31.990Z,88.98
2022-11-29T03:30:04.638Z,87.75
2022-11-29T03:32:54.810Z,89.48
2022-11-29T03:35:41.648Z,88.55
2022-11-29T03:38:20.783Z,90.01
2022-11-29T03:40:55.186Z,91.62
2022-11-29T03:43:27.994Z,90.99
2022-11-29T03:46:02.593Z,92.52
2022-11-29T03:48:48.930Z,90.57
2022-11-29T03:51:20.888Z,91.43
2022-11-29T03:54:04.281Z,92.54
2022-11-29T03:56:37.949Z,90.53
2022-11-29T03:59:39.494Z,88.58
2022-11-29T04:02:10.004Z,89.24
2022-11-29T04:05:26.908Z,89.98
2022-11-29T04:08:02.117Z,90.40
2022-11-29T04:11:11.453Z,90.20
2022-11-29T04:14:20.792Z,88.86
2022-11-29T04:17:22.350Z,88.39
2022-11-29T04:20:27.963Z,89.56
2022-11-29T04:23:14.253Z,88.43
2022-11-29T04:26:23.601Z,88.00
2022-11-29T04:28:54.190Z,88.92
2022-11-29T04:31:33.479Z,86.84
2022-11-29T04:34:12.873Z,87.08
2022-11-29T04:37:07.839Z,87.86
2022-11-29T04:39:44.729Z,87.07
2022-11-29T04:42:14.996Z,87.84
2022-11-29T04:45:03.920Z,88.02
2022-11-29T04:48:27.065Z,88.54
2022-11-29T04:51:16.232Z,91.07
2022-11-29T04:54:06.313Z,90.88
2022-11-29T04:57:01.661Z,89.24
2022-11-29T04:59:48.710Z,89.23
2022-11-29T05:02:37.785Z,91.48
2022-11-29T05:05:31.139Z,90.53
2022-11-29T05:08:36.427Z,89.27
2022-11-29T05:11:16.272Z,88.88
2022-11-29T05:14:22.479Z,90.45
2022-11-29T05:17:26.345Z,89.59
2022-11-29T05:20:13.599Z,89.11
2022-11-29T05:22:58.735Z,89.03
2022-11-29T05:25:49.397Z,90.19
2022-11-29T05:28:26.169Z,90.01
2022-11-29T05:31:08.949Z,91.48
2022-11-29T05:34:13.820Z,90.30
2022-11-29T05:36:53.490Z,91.10
2022-11-29T05:39:56.183Z,91.49
2022-11-29T05:42:42.426Z,90.15
2022-11-29T05:45:25.926Z,89.70
2022-11-29T05:48:03.517Z,91.77
2022-11-29T05:50:33.256Z,91.47
2022-11-29T05:53:26.062Z,91.31
2022-11-29T05:56:30.071Z,90.56
2022-11-29T05:59:03.872Z,91.43
2022-11-29T06:01:52.894Z,90.76
2022-11-29T06:04:28.822Z,91.29
2022-11-29T06:07:15.058Z,91.78
2022-11-29T06:09:48.735Z,91.66
2022-11-29T06:12:21.360Z,91.39
2022-11-29T06:15:27.941Z,90.23
2022-11-29T06:18:01.109Z,94.55
2022-11-29T06:20:44.022Z,94.70
2022-11-29T06:23:11.210Z,93.21
2022-11-29T06:26:08.733Z,90.91
2022-11-29T06:28:54.924Z,89.68
2022-11-29T06:31:34.243Z,89.16
2022-11-29T06:34:30.955Z,89.37
2022-11-29T06:37:14.349Z,88.27
2022-11-29T06:39:42.059Z,88.98
2022-11-29T06:42:09.858Z,90.45
2022-11-29T06:44:37.386Z,90.68
2022-11-29T06:47:15.125Z,89.77
2022-11-29T06:49:52.490Z,90.92
2022-11-29T06:52:32.488Z,89.93
2022-11-29T06:55:14.989Z,88.31
2022-11-29T06:57:48.130Z,89.28
2022-11-29T07:00:37.151Z,86.84
2022-11-29T07:03:39.128Z,86.09
2022-11-29T07:06:21.894Z,88.65
2022-11-29T07:08:54.137Z,90.12
2022-11-29T07:11:22.311Z,89.99
2022-11-29T07:13:50.002Z,91.83
2022-11-29T07:16:24.995Z,89.75
2022-11-29T07:19:21.057Z,89.12
2022-11-29T07:21:59.000Z,86.50
2022-11-29T07:24:38.655Z,89.15
2022-11-29T07:27:12.591Z,88.88
2022-11-29T07:29:48.864Z,88.52
2022-11-29T07:32:23.856Z,88.12
2022-11-29T07:35:16.347Z,88.00
2022-11-29T07:38:04.315Z,88.25
2022-11-29T07:40:41.582Z,89.07
2022-11-29T07:43:22.011Z,88.21
2022-11-29T07:45:49.886Z,86.90
2022-11-29T07:48:17.809Z,87.66
2022-11-29T07:50:45.492Z,87.22
2022-11-29T07:53:17.582Z,89.22
2022-11-29T07:55:45.207Z,89.06
2022-11-29T07:58:14.208Z,88.49
2022-11-29T08:00:42.411Z,90.65
2022-11-29T08:03:10.851Z,92.32
2022-11-29T08:05:38.903Z,89.62
2022-11-29T08:08:06.852Z,88.18
2022-11-29T08:10:35.542Z,88.52
2022-11-29T08:13:02.910Z,87.00
2022-11-29T08:15:30.337Z,86.43
2022-11-29T08:17:57.903Z,85.94
2022-11-29T08:20:25.381Z,85.04
2022-11-29T08:22:57.697Z,86.60
2022-11-29T08:25:27.420Z,87.71
2022-11-29T08:27:55.739Z,88.58
2022-11-29T08:30:23.477Z,87.69
2022-11-29T08:32:51.960Z,85.18
2022-11-29T08:35:20.612Z,85.58
2022-11-29T08:37:48.055Z,87.50
2022-11-29T08:40:16.242Z,89.63
2022-11-29T08:42:43.699Z,90.47
2022-11-29T08:45:11.451Z,87.64
2022-11-29T08:47:40.260Z,88.58
2022-11-29T08:50:16.063Z,86.36
2022-11-29T08:53:04.270Z,87.26
2022-11-29T08:55:34.436Z,88.12
2022-11-29T08:58:04.812Z,85.94
2022-11-29T09:00:32.616Z,86.60
2022-11-29T09:03:21.872Z,84.81
2022-11-29T09:05:49.779Z,87.27
2022-11-29T09:08:17.120Z,86.59
2022-11-29T09:10:44.545Z,84.90
2022-11-29T09:13:12.547Z,82.91
2022-11-29T09:15:42.481Z,85.74
2022-11-29T09:18:09.975Z,83.75
2022-11-29T09:20:37.632Z,87.49
2022-11-29T09:23:04.963Z,87.27
2022-11-29T09:25:32.412Z,87.14
2022-11-29T09:28:02.851Z,85.09
2022-11-29T09:30:31.570Z,84.22
2022-11-29T09:33:05.082Z,85.77
2022-11-29T09:35:33.947Z,84.32
2022-11-29T09:38:01.511Z,85.87
2022-11-29T09:40:49.513Z,83.62
2022-11-29T09:43:35.360Z,84.11
2022-11-29T09:46:16.084Z,84.63
2022-11-29T09:48:59.314Z,84.00
2022-11-29T09:51:50.048Z,83.09
2022-11-29T09:54:39.504Z,81.90
2022-11-29T09:57:10.614Z,80.92
2022-11-29T09:59:43.395Z,82.19
2022-11-29T10:02:25.349Z,81.87
2022-11-29T10:04:57.204Z,82.14
2022-11-29T10:07:30.557Z,83.03
2022-11-29T10:10:13.040Z,82.52
2022-11-29T10:12:48.820Z,83.65
2022-11-29T10:15:25.043Z,82.49
2022-11-29T10:17:59.272Z,83.16
2022-11-29T10:20:30.420Z,82.69
2022-11-29T10:23:04.006Z,83.83
2022-11-29T10:25:36.142Z,84.30
2022-11-29T10:28:05.067Z,85.33
2022-11-29T10:30:34.250Z,83.40
2022-11-29T10:33:02.608Z,84.42
2022-11-29T10:35:36.045Z,83.58
2022-11-29T10:40:59.171Z,85.43
2022-11-29T10:43:26.808Z,83.42
2022-11-29T10:45:56.272Z,85.64
2022-11-29T10:48:31.637Z,83.75
2022-11-29T10:51:01.176Z,81.71
2022-11-29T10:53:32.839Z,82.19
2022-11-29T10:56:01.689Z,83.23
2022-11-29T10:58:31.581Z,81.79
2022-11-29T11:01:08.657Z,82.16
2022-11-29T11:04:07.509Z,81.07
2022-11-29T11:06:49.504Z,82.52
2022-11-29T11:09:39.047Z,82.61
2022-11-29T11:12:16.983Z,83.31
2022-11-29T11:14:45.380Z,81.34
2022-11-29T11:17:18.999Z,81.47
2022-11-29T11:19:56.180Z,79.44
2022-11-29T11:22:24.443Z,78.44
2022-11-29T11:25:05.382Z,77.80
2022-11-29T11:27:40.063Z,79.72
2022-11-29T11:30:08.400Z,78.99
2022-11-29T11:32:35.648Z,80.61
2022-11-29T11:35:02.983Z,79.81
2022-11-29T11:37:32.481Z,79.02
2022-11-29T11:40:18.199Z,80.64
2022-11-29T11:42:46.223Z,83.54
2022-11-29T11:45:13.589Z,83.68
2022-11-29T11:47:49.683Z,81.35
2022-11-29T11:50:59.142Z,81.21
2022-11-29T11:53:29.830Z,79.00
2022-11-29T11:56:05.791Z,78.92
2022-11-29T11:58:47.761Z,81.47
2022-11-29T12:01:25.211Z,79.41
2022-11-29T12:03:58.542Z,79.37
2022-11-29T12:06:29.723Z,79.03
2022-11-29T12:09:08.495Z,79.20
2022-11-29T12:12:04.596Z,78.17
2022-11-29T12:14:53.455Z,79.64
2022-11-29T12:17:44.288Z,80.69
2022-11-29T12:20:36.698Z,80.96
2022-11-29T12:23:12.776Z,82.05
2022-11-29T12:25:49.656Z,78.72
2022-11-29T12:28:20.821Z,78.07
2022-11-29T12:31:16.724Z,76.07
2022-11-29T12:33:50.007Z,80.83
2022-11-29T12:36:32.266Z,80.32
2022-11-29T12:39:19.284Z,80.25
2022-11-29T12:42:09.818Z,79.13
2022-11-29T12:44:52.513Z,77.89
2022-11-29T12:47:39.302Z,78.10
2022-11-29T12:50:28.637Z,77.02
2022-11-29T12:53:16.901Z,78.17
2022-11-29T12:55:53.556Z,77.71
2022-11-29T12:58:52.190Z,80.19
2022-11-29T13:01:46.277Z,79.97
2022-11-29T13:04:21.491Z,78.52
2022-11-29T13:07:26.934Z,78.39
2022-11-29T13:10:00.334Z,79.43
2022-11-29T13:12:42.286Z,79.26
2022-11-29T13:15:21.872Z,79.81
2022-11-29T13:17:58.937Z,79.14
2022-11-29T13:20:45.682Z,80.10
2022-11-29T13:24:17.794Z,79.76
2022-11-29T13:26:45.673Z,77.68
2022-11-29T13:29:17.569Z,78.75
2022-11-29T13:31:46.607Z,79.96
2022-11-29T13:34:22.625Z,78.05
2022-11-29T13:37:20.455Z,79.44
2022-11-29T13:39:50.570Z,79.64
2022-11-29T13:42:45.275Z,78.88
2022-11-29T13:45:26.995Z,80.85
2022-11-29T13:47:58.376Z,80.22
2022-11-29T13:50:42.479Z,79.50
2022-11-29T13:53:17.432Z,80.86
2022-11-29T13:55:50.381Z,79.60
2022-11-29T13:58:33.293Z,78.12
2022-11-29T14:01:01.659Z,82.10
2022-11-29T14:03:48.951Z,80.27
2022-11-29T14:06:23.733Z,81.99
2022-11-29T14:11:55.251Z,80.79
2022-11-29T14:14:27.597Z,80.78
2022-11-29T14:16:59.976Z,80.46
2022-11-29T14:19:35.209Z,80.16
2022-11-29T14:22:02.535Z,80.50
2022-11-29T14:24:32.421Z,81.77
2022-11-29T14:27:23.112Z,80.20
2022-11-29T14:29:55.117Z,79.03
2022-11-29T14:32:51.076Z,81.39
2022-11-29T14:35:34.011Z,83.40
2022-11-29T14:38:19.411Z,80.91
2022-11-29T14:41:00.916Z,82.68
2022-11-29T14:43:33.391Z,84.37
2022-11-29T14:46:16.401Z,85.22
2022-11-29T14:48:56.149Z,82.82
2022-11-29T14:51:25.691Z,83.01
2022-11-29T14:54:14.597Z,82.16
2022-11-29T14:56:44.493Z,83.12
2022-11-29T14:59:49.443Z,81.94
2022-11-29T15:02:20.151Z,81.86
2022-11-29T15:04:49.273Z,80.79
2022-11-29T15:07:20.261Z,79.91
2022-11-29T15:09:49.732Z,80.40
2022-11-29T15:12:20.512Z,82.10
2022-11-29T15:15:13.027Z,81.69
2022-11-29T15:17:53.252Z,81.66
2022-11-29T15:20:42.718Z,81.01
2022-11-29T15:23:18.388Z,82.03
2022-11-29T15:25:50.832Z,82.06
2022-11-29T15:28:23.770Z,83.03
2022-11-29T15:31:02.672Z,84.60
2022-11-29T15:33:30.782Z,84.78
2022-11-29T15:36:06.070Z,83.47
2022-11-29T15:38:45.603Z,85.30
2022-11-29T15:41:19.541Z,82.35
2022-11-29T15:43:50.538Z,84.63
2022-11-29T15:46:24.404Z,82.80
2022-11-29T15:48:52.025Z,86.54
2022-11-29T15:51:30.607Z,82.45
2022-11-29T15:54:12.108Z,85.04
2022-11-29T15:56:47.265Z,83.92
2022-11-29T15:59:26.890Z,83.68
2022-11-29T16:01:57.342Z,81.93
2022-11-29T16:04:27.411Z,81.36
2022-11-29T16:06:55.738Z,82.21
2022-11-29T16:09:31.619Z,82.62
2022-11-29T16:12:00.561Z,81.65
2022-11-29T16:14:28.410Z,82.30
2022-11-29T16:16:57.965Z,81.82
2022-11-29T16:19:28.585Z,80.31
2022-11-29T16:22:12.977Z,80.23
2022-11-29T16:25:14.084Z,80.16
2022-11-29T16:27:41.588Z,79.04
2022-11-29T16:30:21.804Z,81.01
2022-11-29T16:32:58.728Z,78.90
2022-11-29T16:35:28.690Z,78.99
2022-11-29T16:37:56.806Z,78.42
2022-11-29T16:40:26.677Z,78.76
2022-11-29T16:43:06.673Z,79.78
2022-11-29T16:45:42.632Z,80.78
2022-11-29T16:48:22.596Z,80.05
2022-11-29T16:51:08.370Z,79.91
2022-11-29T16:53:38.452Z,80.47
2022-11-29T16:56:06.150Z,79.78
2022-11-29T16:58:36.457Z,80.02
2022-11-29T17:01:29.367Z,79.96
2022-11-29T17:03:59.799Z,81.03
2022-11-29T17:06:30.095Z,81.75
2022-11-29T17:08:59.097Z,79.44
2022-11-29T17:11:27.297Z,81.66
2022-11-29T17:13:54.696Z,80.61
2022-11-29T17:16:23.785Z,81.27
2022-11-29T17:18:52.914Z,81.71
2022-11-29T17:21:25.110Z,82.84
2022-11-29T17:23:53.611Z,84.24
2022-11-29T17:26:22.590Z,84.82
2022-11-29T17:28:52.366Z,82.75
2022-11-29T17:31:22.645Z,83.84
2022-11-29T17:33:59.699Z,84.27
2022-11-29T17:36:28.495Z,82.27
2022-11-29T17:38:57.089Z,82.41
2022-11-29T17:41:26.361Z,84.14
2022-11-29T17:43:55.618Z,85.03
2022-11-29T17:46:26.256Z,84.12
2022-11-29T17:48:54.746Z,84.28
2022-11-29T17:51:50.741Z,83.69
2022-11-29T17:54:13.003Z,82.21
2022-11-29T17:56:40.605Z,81.52
2022-11-29T17:59:08.628Z,79.92
2022-11-29T18:01:37.346Z,81.03
2022-11-29T18:04:06.837Z,80.61
2022-11-29T18:06:37.462Z,80.76
2022-11-29T18:09:06.896Z,79.97
2022-11-29T18:11:46.331Z,81.80
2022-11-29T18:14:23.207Z,81.85
2022-11-29T18:16:50.901Z,81.23
2022-11-29T18:19:21.153Z,82.85
2022-11-29T18:21:50.943Z,83.60
2022-11-29T18:24:19.445Z,84.76
2022-11-29T18:26:47.740Z,83.86
2022-11-29T18:29:16.894Z,82.35
2022-11-29T18:31:46.291Z,80.43
2022-11-29T18:34:16.142Z,80.77
2022-11-29T18:36:46.461Z,81.98
2022-11-29T18:39:24.445Z,81.19
2022-11-29T18:41:52.531Z,82.56
2022-11-29T18:44:22.158Z,82.64
2022-11-29T18:46:50.264Z,81.39
2022-11-29T18:49:18.974Z,80.26
2022-11-29T18:51:48.006Z,81.31
2022-11-29T18:54:18.489Z,81.74
2022-11-29T18:56:47.185Z,84.12
2022-11-29T18:59:18.094Z,83.02
2022-11-29T19:01:48.288Z,81.90
2022-11-29T19:04:19.168Z,83.83
2022-11-29T19:06:47.794Z,83.41
2022-11-29T19:09:18.220Z,83.25
2022-11-29T19:11:46.393Z,84.41
2022-11-29T19:14:14.173Z,81.78
2022-11-29T19:16:45.092Z,82.04
2022-11-29T19:19:13.604Z,81.24
2022-11-29T19:21:41.802Z,83.53
2022-11-29T19:24:14.551Z,81.80
2022-11-29T19:26:44.947Z,81.52
2022-11-29T19:29:14.274Z,82.57
2022-11-29T19:31:43.827Z,81.08
2022-11-29T19:34:12.249Z,83.14
2022-11-29T19:36:43.959Z,82.52
2022-11-29T19:39:15.528Z,80.98
2022-11-29T19:41:46.160Z,81.09
2022-11-29T19:44:14.734Z,81.77
2022-11-29T19:46:46.491Z,82.20
2022-11-29T19:49:14.752Z,82.88
2022-11-29T19:51:42.699Z,85.69
2022-11-29T19:54:12.311Z,82.52
2022-11-29T19:56:40.811Z,83.97
2022-11-29T19:59:08.875Z,83.84
2022-11-29T20:01:41.507Z,81.87
2022-11-29T20:04:12.447Z,79.89
2022-11-29T20:06:40.774Z,79.75
2022-11-29T20:09:09.129Z,79.46
2022-11-29T20:11:40.309Z,78.58
2022-11-29T20:14:08.905Z,81.36
2022-11-29T20:16:38.738Z,79.99
2022-11-29T20:19:12.193Z,79.96
2022-11-29T20:21:46.249Z,79.32
2022-11-29T20:24:15.167Z,78.22
2022-11-29T20:26:46.107Z,79.37
2022-11-29T20:29:15.492Z,77.31
2022-11-29T20:31:49.924Z,77.79
2022-11-29T20:34:19.786Z,78.84
2022-11-29T20:37:13.561Z,77.64
2022-11-29T20:39:55.165Z,77.80
2022-11-29T20:42:29.745Z,77.07
2022-11-29T20:45:03.580Z,79.23
2022-11-29T20:47:41.494Z,79.09
2022-11-29T20:50:15.012Z,79.51
2022-11-29T20:52:52.325Z,78.92
2022-11-29T20:55:21.286Z,76.09
2022-11-29T20:57:50.330Z,76.79
2022-11-29T21:00:18.771Z,79.84
2022-11-29T21:02:46.767Z,78.75
2022-11-29T21:05:16.712Z,78.37
2022-11-29T21:07:45.871Z,78.82
2022-11-29T21:10:15.490Z,79.35
2022-11-29T21:12:45.638Z,77.74
2022-11-29T21:15:14.196Z,77.12
2022-11-29T21:17:43.005Z,75.51
2022-11-29T21:20:18.317Z,77.10
2022-11-29T21:22:54.168Z,78.16
2022-11-29T21:25:31.373Z,77.33
2022-11-29T21:28:00.916Z,76.54
2022-11-29T21:30:28.372Z,76.42
2022-11-29T21:32:56.003Z,76.42
2022-11-29T21:35:23.933Z,75.17
2022-11-29T21:37:51.566Z,74.09
2022-11-29T21:40:19.008Z,73.42
2022-11-29T21:42:46.730Z,75.24
2022-11-29T21:45:15.794Z,76.11
2022-11-29T21:47:44.086Z,75.38
2022-11-29T21:50:13.432Z,74.14
2022-11-29T21:52:43.995Z,72.80
2022-11-29T21:55:11.586Z,73.39
2022-11-29T21:57:38.985Z,71.43
2022-11-29T22:00:07.380Z,72.35
2022-11-29T22:02:34.716Z,74.04
2022-11-29T22:05:02.325Z,72.26
2022-11-29T22:07:29.962Z,72.82
2022-11-29T22:09:57.319Z,74.28
2022-11-29T22:12:34.076Z,74.44
2022-11-29T22:15:02.127Z,74.44
2022-11-29T22:17:29.700Z,72.72
2022-11-29T22:19:57.053Z,72.33
2022-11-29T22:22:27.966Z,71.87
2022-11-29T22:24:55.896Z,71.84
2022-11-29T22:27:23.242Z,72.07
2022-11-29T22:29:51.608Z,71.90
2022-11-29T22:32:19.179Z,71.59
2022-11-29T22:34:46.672Z,72.45
2022-11-29T22:37:14.137Z,71.93
2022-11-29T22:39:41.841Z,70.34
2022-11-29T22:42:09.402Z,69.75
2022-11-29T22:44:36.713Z,69.54
2022-11-29T22:47:04.401Z,71.13
2022-11-29T22:49:33.267Z,69.77
2022-11-29T22:52:00.696Z,71.60
2022-11-29T22:54:28.299Z,71.04
2022-11-29T22:56:55.614Z,71.56
2022-11-29T22:59:23.182Z,72.99
2022-11-29T23:01:50.777Z,71.26
2022-11-29T23:04:18.119Z,70.67
2022-11-29T23:06:46.239Z,72.50
2022-11-29T23:09:16.884Z,72.09
2022-11-29T23:11:45.196Z,70.90
2022-11-29T23:14:12.728Z,69.37
2022-11-29T23:16:40.384Z,71.00
2022-11-29T23:19:07.767Z,70.53
2022-11-29T23:21:37.245Z,72.21
2022-11-29T23:24:04.938Z,70.28
2022-11-29T23:26:38.910Z,72.32
2022-11-29T23:29:09.011Z,71.37
2022-11-29T23:31:36.364Z,70.35
2022-11-29T23:34:03.905Z,71.26
2022-11-29T23:36:31.748Z,69.60
2022-11-29T23:38:59.109Z,68.74
2022-11-29T23:41:26.448Z,69.91
2022-11-29T23:43:54.397Z,69.42
2022-11-29T23:46:23.845Z,70.39
2022-11-29T23:48:52.141Z,69.22
2022-11-29T23:51:20.183Z,68.57
2022-11-29T23:53:53.773Z,67.62
2022-11-29T23:56:21.824Z,69.34
2022-11-29T23:58:49.332Z,67.30
